createdAt,value
2019-03-30T00:00:28.820Z,5.89
2019-03-30T00:05:25.498Z,6.03
2019-03-30T00:10:22.054Z,5.97
2019-03-30T00:15:18.671Z,6.04
2019-03-30T00:20:15.425Z,5.73
2019-03-30T00:25:12.049Z,5.42
2019-03-30T00:30:10.775Z,5.30
2019-03-30T00:35:07.465Z,5.75
2019-03-30T00:40:04.039Z,5.89
2019-03-30T00:45:01.706Z,5.65
2019-03-30T00:49:58.249Z,5.31
2019-03-30T00:54:54.822Z,5.56
2019-03-30T00:59:51.463Z,5.68
2019-03-30T01:04:48.026Z,5.69
2019-03-30T01:09:44.747Z,5.87
2019-03-30T01:14:41.272Z,5.99
2019-03-30T01:19:37.857Z,5.39
2019-03-30T01:24:34.553Z,5.02
2019-03-30T01:29:31.121Z,5.03
2019-03-30T01:34:27.755Z,5.26
2019-03-30T01:39:24.324Z,5.30
2019-03-30T01:44:22.207Z,5.09
2019-03-30T01:49:18.907Z,4.88
2019-03-30T01:54:15.477Z,5.04
2019-03-30T01:59:12.002Z,4.72
2019-03-30T02:04:08.678Z,4.82
2019-03-30T02:09:06.781Z,5.00
2019-03-30T02:14:03.354Z,4.96
2019-03-30T02:19:00.011Z,5.03
2019-03-30T02:23:56.728Z,4.93
2019-03-30T02:28:53.376Z,5.03
2019-03-30T02:33:49.946Z,5.26
2019-03-30T02:38:46.561Z,4.94
2019-03-30T02:43:43.169Z,4.71
2019-03-30T02:48:39.716Z,4.80
2019-03-30T02:53:36.266Z,4.98
2019-03-30T02:58:32.903Z,4.88
2019-03-30T03:03:29.601Z,4.51
2019-03-30T03:08:26.190Z,4.01
2019-03-30T03:13:22.771Z,4.20
2019-03-30T03:18:19.370Z,4.59
2019-03-30T03:23:15.903Z,4.54
2019-03-30T03:28:12.561Z,4.53
2019-03-30T03:33:09.725Z,4.03
2019-03-30T03:38:07.409Z,4.40
2019-03-30T03:43:04.036Z,4.56
2019-03-30T03:48:00.642Z,4.33
2019-03-30T03:52:57.386Z,4.37
2019-03-30T03:57:54.668Z,4.25
2019-03-30T04:02:52.959Z,3.86
2019-03-30T04:07:52.602Z,3.99
2019-03-30T04:12:51.073Z,4.14
2019-03-30T04:17:47.669Z,4.12
2019-03-30T04:22:44.315Z,4.06
2019-03-30T04:27:40.935Z,4.01
2019-03-30T04:32:37.612Z,3.71
2019-03-30T04:37:34.232Z,3.99
2019-03-30T04:42:30.810Z,3.71
2019-03-30T04:47:27.466Z,3.55
2019-03-30T04:52:23.992Z,3.41
2019-03-30T04:57:20.650Z,3.55
2019-03-30T05:02:17.254Z,3.28
2019-03-30T05:07:15.264Z,3.05
2019-03-30T05:12:11.864Z,3.43
2019-03-30T05:17:08.517Z,3.63
2019-03-30T05:22:11.932Z,3.66
2019-03-30T05:27:04.042Z,3.48
2019-03-30T05:32:00.736Z,3.38
2019-03-30T05:36:57.388Z,3.41
2019-03-30T05:42:16.217Z,3.37
2019-03-30T05:47:50.788Z,3.43
2019-03-30T05:53:00.932Z,3.71
2019-03-30T05:57:57.793Z,3.44
2019-03-30T06:03:32.843Z,3.66
2019-03-30T06:08:29.826Z,3.67
2019-03-30T06:13:30.513Z,3.70
2019-03-30T06:18:27.513Z,4.11
2019-03-30T06:23:27.601Z,4.33
2019-03-30T06:28:24.660Z,4.69
2019-03-30T06:33:30.921Z,4.73
2019-03-30T06:38:37.064Z,4.86
2019-03-30T06:43:37.208Z,4.97
2019-03-30T06:48:38.143Z,5.32
2019-03-30T06:53:40.094Z,5.62
2019-03-30T06:58:40.007Z,5.82
2019-03-30T07:03:47.032Z,6.00
2019-03-30T07:08:56.513Z,6.19
2019-03-30T07:13:58.211Z,6.30
2019-03-30T07:19:04.386Z,6.49
2019-03-30T07:24:01.407Z,6.70
2019-03-30T07:28:59.546Z,7.06
2019-03-30T07:33:56.987Z,7.40
2019-03-30T07:58:28.396Z,8.94
2019-03-30T10:07:27.028Z,14.27
2019-03-30T10:12:23.960Z,14.32
2019-03-30T10:17:24.270Z,14.35
2019-03-30T10:22:21.159Z,14.13
2019-03-30T10:27:17.958Z,14.19
2019-03-30T10:32:14.804Z,14.08
2019-03-30T10:37:14.139Z,14.22
2019-03-30T10:42:15.357Z,14.22
2019-03-30T10:47:16.825Z,14.10
2019-03-30T10:52:15.259Z,14.11
2019-03-30T10:57:12.099Z,14.15
2019-03-30T11:02:11.033Z,14.22
2019-03-30T11:07:10.005Z,14.32
2019-03-30T11:12:12.034Z,14.28
2019-03-30T11:17:14.587Z,14.49
2019-03-30T11:22:29.504Z,14.55
2019-03-30T11:27:26.239Z,14.62
2019-03-30T11:32:22.882Z,14.58
2019-03-30T11:37:19.546Z,14.68
2019-03-30T11:42:16.359Z,14.79
2019-03-30T11:47:12.989Z,15.06
2019-03-30T11:52:09.756Z,15.34
2019-03-30T11:57:06.349Z,15.43
2019-03-30T12:02:03.041Z,15.49
2019-03-30T12:06:59.656Z,15.43
2019-03-30T12:11:56.274Z,15.33
2019-03-30T12:16:52.975Z,15.38
2019-03-30T12:21:49.643Z,15.26
2019-03-30T12:26:46.275Z,15.32
2019-03-30T12:31:42.906Z,15.27
2019-03-30T12:36:39.749Z,15.39
2019-03-30T12:41:37.220Z,15.39
2019-03-30T12:46:34.032Z,15.28
2019-03-30T12:51:30.766Z,15.28
2019-03-30T12:56:27.608Z,15.63
2019-03-30T13:01:24.258Z,15.55
2019-03-30T13:06:20.954Z,15.41
2019-03-30T13:11:17.566Z,15.61
2019-03-30T13:16:14.245Z,15.58
2019-03-30T13:21:10.909Z,15.48
2019-03-30T13:26:07.700Z,15.52
2019-03-30T13:31:04.390Z,15.41
2019-03-30T13:36:01.043Z,15.32
2019-03-30T13:40:57.714Z,15.17
2019-03-30T13:45:54.317Z,15.30
2019-03-30T13:50:51.016Z,15.25
2019-03-30T13:55:47.651Z,15.30
2019-03-30T14:00:44.647Z,15.46
2019-03-30T14:05:41.663Z,15.76
2019-03-30T14:10:39.086Z,16.02
2019-03-30T14:15:36.215Z,15.79
2019-03-30T14:20:35.317Z,16.04
2019-03-30T14:25:32.050Z,16.08
2019-03-30T14:30:28.628Z,16.06
2019-03-30T14:35:25.293Z,16.05
2019-03-30T14:40:21.913Z,16.05
2019-03-30T14:45:18.577Z,16.23
2019-03-30T14:50:15.564Z,16.09
2019-03-30T14:55:13.460Z,16.02
2019-03-30T15:00:11.616Z,16.17
2019-03-30T15:05:12.207Z,16.13
2019-03-30T15:10:10.419Z,16.27
2019-03-30T15:15:08.126Z,16.14
2019-03-30T15:20:04.935Z,16.18
2019-03-30T15:25:01.693Z,16.23
2019-03-30T15:29:58.380Z,16.22
2019-03-30T15:34:58.263Z,16.24
2019-03-30T15:39:53.479Z,16.16
2019-03-30T15:44:50.335Z,16.02
2019-03-30T15:49:47.264Z,16.02
2019-03-30T15:54:43.875Z,16.02
2019-03-30T15:59:40.578Z,16.00
2019-03-30T16:04:37.509Z,16.10
2019-03-30T16:09:36.110Z,15.99
2019-03-30T16:14:34.145Z,16.09
2019-03-30T16:19:30.873Z,16.01
2019-03-30T16:24:30.105Z,15.94
2019-03-30T16:29:26.031Z,15.88
2019-03-30T16:34:22.743Z,15.80
2019-03-30T16:39:19.519Z,15.84
2019-03-30T16:44:16.303Z,15.90
2019-03-30T16:49:12.975Z,15.77
2019-03-30T16:54:09.948Z,15.54
2019-03-30T16:59:07.113Z,15.38
2019-03-30T17:04:03.880Z,15.29
2019-03-30T17:09:00.645Z,15.26
2019-03-30T17:13:57.538Z,15.15
2019-03-30T17:18:54.284Z,14.97
2019-03-30T17:23:51.181Z,14.68
2019-03-30T17:28:47.869Z,14.42
2019-03-30T17:33:44.546Z,14.20
2019-03-30T17:38:41.229Z,14.07
2019-03-30T17:43:38.028Z,13.87
2019-03-30T17:48:35.949Z,13.62
2019-03-30T17:53:32.639Z,13.54
2019-03-30T17:58:29.450Z,13.45
2019-03-30T18:03:26.190Z,13.19
2019-03-30T18:08:22.909Z,12.98
2019-03-30T18:13:19.637Z,12.78
2019-03-30T18:18:16.339Z,12.62
2019-03-30T18:23:15.830Z,12.36
2019-03-30T18:28:27.671Z,12.18
2019-03-30T18:33:29.863Z,12.45
2019-03-30T18:38:39.963Z,12.61
2019-03-30T18:43:47.026Z,12.58
2019-03-30T18:48:59.229Z,12.73
2019-03-30T18:54:00.136Z,12.63
2019-03-30T18:59:00.617Z,12.25
2019-03-30T19:03:56.279Z,12.02
2019-03-30T19:09:27.111Z,11.64
2019-03-30T19:15:06.476Z,11.60
2019-03-30T19:20:14.613Z,11.51
2019-03-30T19:25:33.875Z,11.36
2019-03-30T19:36:29.996Z,11.11
2019-03-30T19:41:51.157Z,11.10
2019-03-30T19:47:22.607Z,11.17
2019-03-30T19:52:40.060Z,11.17
2019-03-30T19:57:55.450Z,10.82
2019-03-30T20:03:02.273Z,10.70
2019-03-30T20:08:40.292Z,10.66
2019-03-30T20:13:55.270Z,10.29
2019-03-30T20:19:12.430Z,10.38
2019-03-30T20:24:24.334Z,10.23
2019-03-30T20:29:39.753Z,10.26
2019-03-30T20:34:45.835Z,10.01
2019-03-30T20:39:55.852Z,10.05
2019-03-30T20:45:04.155Z,9.94
2019-03-30T20:50:51.802Z,10.18
2019-03-30T20:56:08.767Z,10.01
2019-03-30T21:01:15.730Z,9.79
2019-03-30T21:20:17.143Z,9.06
2019-03-30T21:31:18.202Z,8.66
2019-03-30T21:36:40.980Z,8.71
2019-03-30T21:41:48.023Z,8.66
2019-03-30T21:46:55.063Z,8.90
2019-03-30T21:52:27.063Z,8.62
2019-03-30T21:57:16.852Z,8.52
2019-03-30T22:02:30.295Z,8.44
2019-03-30T22:08:08.437Z,8.32
2019-03-30T22:13:25.378Z,8.23
2019-03-30T22:18:45.334Z,8.14
2019-03-30T22:23:57.493Z,8.52
2019-03-30T22:29:07.854Z,8.53
2019-03-30T22:34:15.205Z,8.30
2019-03-30T22:39:28.546Z,8.17
2019-03-30T22:45:15.319Z,8.23
2019-03-30T22:50:30.240Z,8.16
2019-03-30T22:55:34.071Z,7.92
2019-03-30T23:00:51.648Z,7.51
2019-03-30T23:05:50.995Z,7.74
2019-03-30T23:11:00.595Z,7.57
2019-03-30T23:16:07.944Z,7.53
2019-03-30T23:21:16.058Z,7.36
2019-03-30T23:26:13.792Z,7.06
2019-03-30T23:31:10.396Z,7.15
2019-03-30T23:36:07.016Z,7.18
2019-03-30T23:41:03.716Z,7.22
2019-03-30T23:46:00.352Z,6.98
2019-03-30T23:50:56.988Z,7.05
2019-03-30T23:55:53.602Z,7.12
